createdAt,value
2023-05-25T00:02:29.186Z,7.05
2023-05-25T00:07:31.104Z,7.01
2023-05-25T00:12:34.881Z,6.99
2023-05-25T00:17:37.043Z,6.96
2023-05-25T00:22:39.446Z,6.92
2023-05-25T00:27:42.826Z,6.78
2023-05-25T00:32:45.248Z,6.70
2023-05-25T00:37:47.358Z,6.70
2023-05-25T00:42:51.169Z,6.59
2023-05-25T00:47:53.669Z,6.55
2023-05-25T00:52:55.867Z,6.54
2023-05-25T00:58:04.048Z,6.44
2023-05-25T01:03:11.739Z,6.51
2023-05-25T01:08:14.615Z,6.44
2023-05-25T01:13:20.204Z,6.38
2023-05-25T01:18:22.014Z,6.33
2023-05-25T01:23:31.558Z,6.45
2023-05-25T01:28:38.662Z,6.46
2023-05-25T01:33:42.904Z,6.47
2023-05-25T01:38:46.753Z,6.36
2023-05-25T01:43:49.291Z,6.26
2023-05-25T01:49:02.298Z,6.23
2023-05-25T01:54:11.375Z,6.21
2023-05-25T01:59:15.326Z,6.06
2023-05-25T02:04:17.834Z,6.08
2023-05-25T02:09:21.467Z,6.10
2023-05-25T02:14:23.891Z,5.98
2023-05-25T02:19:26.061Z,5.92
2023-05-25T02:24:29.562Z,5.82
2023-05-25T02:29:32.079Z,5.81
2023-05-25T02:34:34.055Z,5.82
2023-05-25T02:39:37.483Z,5.71
2023-05-25T02:44:39.548Z,5.63
2023-05-25T02:49:41.687Z,5.60
2023-05-25T02:54:44.796Z,5.58
2023-05-25T02:59:46.954Z,5.64
2023-05-25T03:04:49.059Z,5.59
2023-05-25T03:09:52.752Z,5.46
2023-05-25T03:14:55.122Z,5.58
2023-05-25T03:19:57.320Z,5.63
2023-05-25T03:25:00.571Z,5.80
2023-05-25T03:30:02.792Z,5.69
2023-05-25T03:35:05.929Z,5.71
2023-05-25T03:40:10.339Z,5.78
2023-05-25T03:45:12.915Z,5.94
2023-05-25T03:50:14.949Z,6.00
2023-05-25T03:55:18.686Z,6.12
2023-05-25T04:00:20.687Z,6.27
2023-05-25T04:05:23.335Z,6.39
2023-05-25T04:10:27.246Z,6.56
2023-05-25T04:15:29.657Z,6.81
2023-05-25T04:20:32.019Z,7.16
2023-05-25T04:25:35.527Z,7.98
2023-05-25T04:30:37.682Z,9.99
2023-05-25T04:35:39.887Z,12.13
2023-05-25T04:40:43.384Z,14.20
2023-05-25T04:45:45.544Z,15.36
2023-05-25T04:50:48.150Z,15.70
2023-05-25T04:55:51.343Z,17.05
2023-05-25T05:00:53.594Z,16.80
2023-05-25T05:05:55.703Z,16.89
2023-05-25T05:10:59.018Z,17.67
2023-05-25T05:16:01.419Z,18.10
2023-05-25T05:21:03.670Z,19.49
2023-05-25T05:26:07.217Z,20.94
2023-05-25T05:31:09.241Z,20.72
2023-05-25T05:36:11.491Z,18.75
2023-05-25T05:41:14.650Z,19.04
2023-05-25T05:46:16.905Z,19.81
2023-05-25T05:51:18.768Z,19.08
2023-05-25T05:56:22.419Z,17.35
2023-05-25T06:01:24.592Z,19.49
2023-05-25T06:06:26.511Z,20.10
2023-05-25T06:11:30.136Z,18.53
2023-05-25T06:16:32.274Z,19.64
2023-05-25T06:21:34.115Z,19.42
2023-05-25T06:26:37.241Z,20.20
2023-05-25T06:31:39.325Z,19.81
2023-05-25T06:36:41.725Z,20.63
2023-05-25T06:41:45.079Z,19.77
2023-05-25T06:46:47.205Z,18.98
2023-05-25T06:51:49.123Z,17.63
2023-05-25T06:56:52.777Z,20.01
2023-05-25T07:01:54.659Z,21.59
2023-05-25T07:06:56.420Z,24.33
2023-05-25T07:11:59.552Z,23.44
2023-05-25T07:17:01.517Z,24.63
2023-05-25T07:22:03.686Z,26.54
2023-05-25T07:27:07.403Z,22.40
2023-05-25T07:32:09.126Z,22.82
2023-05-25T07:37:11.136Z,23.53
2023-05-25T07:42:14.517Z,25.22
2023-05-25T07:47:16.679Z,22.69
2023-05-25T07:52:19.356Z,23.59
2023-05-25T07:57:22.832Z,22.59
2023-05-25T08:02:25.037Z,21.93
2023-05-25T08:07:27.246Z,20.88
2023-05-25T08:12:47.087Z,22.91
2023-05-25T08:17:51.425Z,20.03
2023-05-25T08:22:53.482Z,20.35
2023-05-25T08:27:56.680Z,23.39
2023-05-25T08:32:58.672Z,24.41
2023-05-25T08:38:00.709Z,23.45
2023-05-25T08:43:04.033Z,21.23
2023-05-25T08:48:12.026Z,20.72
2023-05-25T08:53:18.663Z,23.81
2023-05-25T08:58:28.617Z,25.60
2023-05-25T09:03:31.167Z,26.09
2023-05-25T09:08:33.185Z,21.96
2023-05-25T09:13:37.000Z,22.73
2023-05-25T09:18:39.839Z,23.02
2023-05-25T09:23:42.659Z,22.71
2023-05-25T09:28:49.031Z,18.91
2023-05-25T09:33:51.682Z,21.73
2023-05-25T09:38:54.599Z,22.78
2023-05-25T09:44:10.488Z,23.95
2023-05-25T09:49:14.022Z,24.82
2023-05-25T09:54:16.455Z,25.98
2023-05-25T09:59:20.129Z,26.74
2023-05-25T10:04:22.292Z,24.10
2023-05-25T10:09:28.998Z,23.38
2023-05-25T10:14:36.045Z,25.50
2023-05-25T10:19:42.327Z,26.23
2023-05-25T10:24:53.963Z,25.94
2023-05-25T10:30:01.127Z,24.52
2023-05-25T10:35:05.242Z,24.18
2023-05-25T10:40:07.753Z,23.89
2023-05-25T10:45:12.147Z,22.23
2023-05-25T10:50:21.557Z,21.28
2023-05-25T10:55:23.821Z,21.68
2023-05-25T11:00:31.437Z,21.20
2023-05-25T11:05:35.482Z,22.00
2023-05-25T11:10:53.285Z,21.16
2023-05-25T11:16:17.556Z,21.19
2023-05-25T11:21:42.631Z,21.33
2023-05-25T11:26:56.848Z,20.41
2023-05-25T11:32:00.365Z,21.16
2023-05-25T11:37:02.542Z,21.15
2023-05-25T11:42:06.041Z,20.54
2023-05-25T11:47:11.833Z,19.97
2023-05-25T11:52:15.511Z,20.57
2023-05-25T11:57:19.178Z,20.95
2023-05-25T12:02:23.256Z,20.76
2023-05-25T12:07:25.907Z,20.90
2023-05-25T12:12:27.629Z,21.06
2023-05-25T12:17:31.312Z,21.58
2023-05-25T12:22:34.068Z,21.30
2023-05-25T12:27:36.835Z,20.09
2023-05-25T12:33:01.993Z,19.17
2023-05-25T12:38:11.661Z,19.35
2023-05-25T12:43:14.840Z,20.13
2023-05-25T12:48:26.198Z,20.84
2023-05-25T12:53:28.397Z,21.00
2023-05-25T12:58:30.574Z,20.83
2023-05-25T13:03:34.853Z,20.55
2023-05-25T13:08:36.607Z,20.67
2023-05-25T13:13:38.626Z,19.77
2023-05-25T13:18:42.071Z,19.95
2023-05-25T13:23:44.964Z,19.83
2023-05-25T13:28:47.244Z,20.41
2023-05-25T13:33:50.347Z,20.12
2023-05-25T13:38:52.247Z,19.45
2023-05-25T13:43:54.399Z,20.24
2023-05-25T13:48:57.898Z,19.81
2023-05-25T13:53:59.599Z,20.71
2023-05-25T13:59:01.678Z,20.97
2023-05-25T14:04:05.358Z,20.62
2023-05-25T14:09:07.550Z,20.01
2023-05-25T14:14:23.261Z,19.78
2023-05-25T14:19:33.999Z,20.88
2023-05-25T14:24:36.623Z,20.63
2023-05-25T14:29:38.898Z,21.22
2023-05-25T14:34:42.407Z,21.33
2023-05-25T14:39:44.595Z,20.82
2023-05-25T14:44:46.579Z,20.17
2023-05-25T14:49:50.107Z,20.74
2023-05-25T14:54:52.335Z,20.87
2023-05-25T14:59:54.217Z,21.15
2023-05-25T15:04:57.592Z,21.32
2023-05-25T15:09:59.355Z,21.29
2023-05-25T15:15:01.546Z,21.09
2023-05-25T15:20:06.418Z,20.52
2023-05-25T15:25:09.273Z,21.87
2023-05-25T15:30:11.994Z,21.55
2023-05-25T15:35:15.446Z,21.66
2023-05-25T15:40:17.541Z,20.88
2023-05-25T15:45:19.862Z,20.18
2023-05-25T15:50:23.444Z,19.47
2023-05-25T15:55:25.556Z,19.70
2023-05-25T16:00:27.748Z,19.21
2023-05-25T16:05:31.506Z,19.22
2023-05-25T16:10:33.290Z,19.70
2023-05-25T16:15:35.129Z,20.44
2023-05-25T16:20:38.791Z,20.44
2023-05-25T16:25:41.347Z,19.86
2023-05-25T16:30:43.644Z,20.18
2023-05-25T16:35:47.563Z,20.00
2023-05-25T16:40:50.207Z,20.23
2023-05-25T16:45:52.696Z,20.50
2023-05-25T16:50:57.020Z,20.20
2023-05-25T16:55:58.954Z,19.77
2023-05-25T17:01:01.078Z,19.71
2023-05-25T17:06:04.590Z,19.63
2023-05-25T17:11:06.663Z,19.86
2023-05-25T17:16:09.115Z,20.02
2023-05-25T17:21:12.617Z,19.65
2023-05-25T17:26:14.989Z,19.52
2023-05-25T17:31:16.826Z,19.17
2023-05-25T17:36:20.038Z,19.29
2023-05-25T17:41:22.267Z,19.14
2023-05-25T17:46:24.073Z,18.91
2023-05-25T17:51:27.736Z,18.81
2023-05-25T17:56:30.021Z,18.83
2023-05-25T18:01:32.507Z,18.59
2023-05-25T18:06:36.441Z,18.85
2023-05-25T18:11:38.463Z,18.58
2023-05-25T18:16:40.574Z,18.21
2023-05-25T18:21:44.208Z,18.18
2023-05-25T18:26:46.855Z,18.06
2023-05-25T18:31:48.776Z,17.97
2023-05-25T18:36:52.600Z,17.85
2023-05-25T18:41:54.558Z,17.54
2023-05-25T18:46:56.861Z,17.29
2023-05-25T18:52:00.166Z,16.93
2023-05-25T18:57:02.113Z,16.63
2023-05-25T19:02:04.358Z,16.41
2023-05-25T19:07:07.786Z,16.26
2023-05-25T19:12:09.766Z,16.09
2023-05-25T19:17:11.633Z,16.02
2023-05-25T19:22:15.137Z,15.78
2023-05-25T19:27:17.568Z,15.51
2023-05-25T19:32:19.423Z,15.40
2023-05-25T19:37:22.753Z,15.13
2023-05-25T19:42:24.561Z,14.90
2023-05-25T19:47:26.328Z,15.08
2023-05-25T19:52:30.032Z,14.82
2023-05-25T19:57:32.121Z,14.72
2023-05-25T20:02:34.300Z,14.56
2023-05-25T20:07:37.517Z,14.34
2023-05-25T20:12:39.427Z,14.12
2023-05-25T20:17:41.237Z,14.08
2023-05-25T20:22:44.606Z,14.06
2023-05-25T20:27:47.019Z,13.70
2023-05-25T20:32:48.940Z,13.34
2023-05-25T20:37:52.319Z,13.15
2023-05-25T20:42:54.068Z,12.98
2023-05-25T20:47:59.492Z,12.91
2023-05-25T20:53:03.264Z,12.71
2023-05-25T20:58:05.002Z,12.65
2023-05-25T21:03:06.815Z,12.70
2023-05-25T21:08:10.031Z,12.81
2023-05-25T21:13:12.715Z,12.58
2023-05-25T21:18:14.497Z,12.44
2023-05-25T21:23:17.955Z,12.20
2023-05-25T21:28:19.910Z,12.13
2023-05-25T21:33:22.124Z,11.92
2023-05-25T21:38:25.560Z,11.77
2023-05-25T21:43:27.353Z,11.74
2023-05-25T21:48:29.081Z,11.65
2023-05-25T21:53:32.448Z,11.66
2023-05-25T21:58:34.212Z,11.71
2023-05-25T22:03:36.021Z,11.78
2023-05-25T22:08:39.544Z,12.27
2023-05-25T22:13:41.656Z,12.29
2023-05-25T22:18:43.561Z,12.18
2023-05-25T22:23:47.359Z,12.27
2023-05-25T22:28:50.003Z,12.16
2023-05-25T22:33:52.110Z,12.04
2023-05-25T22:38:55.598Z,11.85
2023-05-25T22:43:57.893Z,11.56
2023-05-25T22:49:00.145Z,11.40
2023-05-25T22:54:03.926Z,11.33
2023-05-25T22:59:06.162Z,11.26
2023-05-25T23:04:08.393Z,11.13
2023-05-25T23:09:12.085Z,11.27
2023-05-25T23:14:14.246Z,11.69
2023-05-25T23:19:16.462Z,11.83
2023-05-25T23:24:19.961Z,11.86
2023-05-25T23:29:22.711Z,11.76
2023-05-25T23:34:25.585Z,11.46
2023-05-25T23:39:29.151Z,11.39
2023-05-25T23:44:31.512Z,11.39
2023-05-25T23:49:33.653Z,11.40
2023-05-25T23:54:37.486Z,11.46
2023-05-25T23:59:39.637Z,11.38
